Terminal Aerodrome Forecast
Issued by NWS

Home | Current Version | Previous Version | Text Only | Print | Product List | Glossary On
Versions: 1 2 3 4 5 6 7 8 9 10 11 12
000
FTUS45 KRIW 280500
TAFBPI
TAF
KBPI 280534Z 2806/0106 VRB04KT 5SM -SN SCT024 BKN035
     FM280900 15006KT 5SM -SN BKN024
     FM281900 16007KT P6SM VCSH BKN030
     FM010000 16008KT P6SM SCT020 BKN035=

USA.gov is the U.S. government's official web portal to all federal, state and local government web resources and services.